Weather observations for the past three days for
Winfield / Arkansas City, Strother Field
Metric (Imperial)
Date Time (cdt) Wind (kph) Vis. (km) Weather Sky Cond. Temperature (ºC) Relative Humidity Wind Chill (°C) Heat Index (°C) Pressure Precipitation (cm)
Air Dwpt 6 hour altimeter (cm) sea level (mb) 1 hr 3 hr 6 hr
Max. Min.
01 17:54 S 22 16.09 Fair CLR 37.2 12.8 23% 36 76.05 1012.4
01 16:54 S 17 G 33 16.09 Fair CLR 37.2 13.3 24% 36 76.07 1012.5
01 15:54 S 13 G 37 16.09 Fair CLR 37.2 13.3 24% 36 76.12 1013.2
01 14:54 S 26 G 44 16.09 A Few Clouds FEW095 37.8 13.3 23% 37 76.17 1013.8
01 13:54 S 22 G 39 16.09 Mostly Cloudy BKN090 38.3 13.9 23% 38 76.2 1014.4
01 12:54 S 28 G 37 16.09 Fair CLR 37.2 13.9 37.8 22.2 25% 37 76.25 1015.1
01 11:54 SW 24 G 41 16.09 Fair CLR 36.7 15 27% 37 76.3 1015.6
01 10:54 S 19 16.09 Fair CLR 35 15.6 31% 35 76.33 1015.9
01 09:54 SW 19 16.09 Fair CLR 32.8 16.1 37% 33 76.33 1016.1
01 08:54 S 11 16.09 Fair CLR 28.9 15.6 44% 29 76.35 1016.3
01 07:54 Calm 16.09 Fair CLR 24.4 16.1 60% 26 76.33 1016.1
01 06:54 S 11 16.09 Fair CLR 22.2 15 25 22.2 64% 76.3 1015.7
01 05:54 S 11 16.09 Fair CLR 22.8 15 62% 76.28 1015.2
01 04:54 S 11 16.09 Fair CLR 23.3 15 60% 76.23 1014.8
01 03:54 S 13 16.09 Fair CLR 23.3 15 60% 76.2 1014.3
01 02:54 SE 9 16.09 Fair CLR 25 15 54% 26 76.17 1014.0
01 01:54 S 11 16.09 Fair CLR 23.9 15.6 60% 25 76.2 1014.3
01 00:54 S 11 16.09 Fair CLR 24.4 16.1 36.1 24.4 60% 26 76.2 1014.2
31 23:54 SE 9 16.09 Fair CLR 26.1 16.1 54% 27 76.2 1014.2
31 22:54 SE 15 16.09 Fair CLR 28.9 15.6 44% 29 76.15 1013.6
31 21:54 SE 11 16.09 Fair CLR 29.4 15 42% 29 76.12 1013.2
31 20:54 SE 13 16.09 Fair CLR 31.1 15 38% 31 76.05 1012.3
31 19:54 SE 13 16.09 Fair CLR 33.3 15.6 34% 33 76.02 1012.0
31 18:54 SE 19 G 31 16.09 Fair CLR 36.1 14.4 39.4 36.1 27% 36 76.02 1011.8
31 17:54 S 24 G 41 16.09 Fair CLR 37.8 13.9 24% 37 76 1011.6
31 16:54 S 22 16.09 Fair CLR 38.9 13.3 22% 38 76.02 1011.9
31 15:54 S 28 G 43 16.09 Fair CLR 38.9 13.9 23% 39 76.05 1012.3
31 14:54 SE 24 G 41 16.09 Fair CLR 38.9 12.8 21% 38 76.1 1012.9
31 13:54 S 17 G 31 16.09 Fair CLR 38.3 15.6 26% 39 76.12 1013.2
31 12:54 S 19 G 37 16.09 Fair CLR 38.3 16.1 38.3 22.8 27% 39 76.17 1013.9
31 11:54 SW 20 G 35 16.09 Fair CLR 36.1 17.2 33% 37 76.25 1014.8
31 10:54 S 20 16.09 Fair CLR 34.4 17.2 36% 35 76.25 1014.7
31 09:54 S 20 16.09 Fair CLR 31.1 16.7 42% 31 76.25 1014.9
31 08:54 S 15 16.09 NULL NULL 28.3 16.7 49% 29 76.25 1014.9
31 07:54 SE 7 16.09 Fair CLR 25 16.7 60% 26 76.25 1015.1
31 06:54 SE 7 16.09 Fair CLR 23.3 15.6 30 23.3 62% 76.2 1014.2
31 05:54 SE 9 16.09 Fair CLR 25.6 15.6 54% 26 76.17 1013.7
31 04:54 S 9 16.09 Fair CLR 26.1 15 50% 27 76.12 1013.0
31 03:54 S 15 16.09 Fair CLR 27.8 15.6 47% 28 76.05 1012.2
31 02:54 S 15 16.09 Fair CLR 28.3 15.6 46% 28 76.07 1012.3
31 01:54 S 17 16.09 Fair CLR 28.9 15.6 44% 29 76.07 1012.2
31 00:54 S 22 16.09 Fair CLR 29.4 15.6 37.2 28.9 43% 29 76.02 1011.8
30 23:54 S 19 16.09 Fair CLR 28.9 16.1 46% 29 76 1011.5
30 22:54 S 17 16.09 Fair CLR 29.4 15.6 43% 29 76 1011.4
30 21:54 SE 13 16.09 Fair CLR 30.6 15.6 40% 30 75.95 1011.0
30 20:54 SE 15 16.09 Fair CLR 31.7 15.6 38% 31 75.92 1010.4
30 19:54 S 11 16.09 Fair CLR 33.3 15 33% 33 75.87 1009.8
30 18:54 S 20 G 37 16.09 Fair CLR 37.2 13.9 40.6 37.2 25% 37 75.87 1009.7
30 17:54 S 28 G 44 16.09 Fair CLR 38.9 15 24% 39 75.84 1009.3
30 16:54 S 31 G 52 16.09 Fair CLR 39.4 15.6 24% 40 75.82 1009.2
30 15:54 S 31 G 48 16.09 Fair CLR 40 16.7 25% 41 75.87 1009.7
30 14:54 S 39 G 59 16.09 Fair and Breezy CLR 40 16.1 24% 41 75.92 1010.3
30 13:54 S 28 G 48 16.09 Fair CLR 39.4 17.2 27% 41 75.97 1011.0
30 12:54 S 30 G 54 16.09 Fair CLR 38.3 17.8 38.3 25 30% 40 76.02 1011.6
30 11:54 S 30 G 48 16.09 Fair CLR 35.6 17.8 35% 37 76.07 1012.5
30 10:54 S 26 G 44 16.09 Fair CLR 33.3 17.2 38% 34 76.1 1012.7
30 09:54 S 28 G 46 16.09 Fair CLR 31.1 16.7 42% 31 76.1 1012.8
30 08:54 S 30 G 43 16.09 Fair CLR 28.3 16.1 48% 29 76.12 1013.1
30 07:54 S 26 G 39 16.09 Fair CLR 26.7 16.1 52% 27 76.12 1013.3
30 06:54 S 20 16.09 Fair CLR 25.6 15.6 28.9 25.6 54% 26 76.1 1013.1
30 05:54 S 20 16.09 Fair CLR 26.7 15 49% 27 76.1 1012.8
30 04:54 S 20 16.09 Fair CLR 26.7 15 49% 27 76.07 1012.6
30 03:54 S 20 16.09 Fair CLR 26.1 15.6 52% 27 76.05 1012.3
30 02:54 S 19 16.09 Fair CLR 26.7 15.6 51% 27 76.05 1012.0
30 01:54 S 17 16.09 Fair CLR 27.2 15.6 49% 28 76.05 1012.2
30 00:54 S 20 16.09 Fair CLR 28.9 15.6 35.6 28.3 44% 29 76.07 1012.5
29 23:54 S 20 16.09 Fair CLR 28.3 16.1 48% 29 76.05 1012.3
29 22:54 S 20 16.09 Fair CLR 29.4 16.1 45% 30 76.05 1012.4
29 20:54 SE 15 16.09 Fair CLR 31.1 14.4 36% 31 76 1011.6
29 19:54 S 19 16.09 Fair CLR 33.3 14.4 32% 33 75.95 1011.0
29 18:54 S 17 16.09 Fair CLR 35.6 13.3 39.4 35 26% 35 75.95 1010.9
Date Time (cdt) Wind (kph) Vis. (km) Weather Sky Cond. Air Dwpt Max. Min. Relative Humidity Wind Chill (°C) Heat Index (°C) altimeter (cm) sea level (mb) 1 hr 3 hr 6 hr
6 hour
Temperature (ºC) Pressure Precipitation (cm)